Atlanta, Georgia
Traffic Map
Current Weather Conditions
Atlanta, Georgia
Broken Clouds
Broken Clouds
84°
Feels Like: 90°
Wind Chill: 84° Ceiling: 8000
Heat Index: 90° Visibility: 10mi
Dew Point: 72° Wind: 5mph
Humidity: 67% Direction: ° ()
Pressure: 30.17in Gusts: 0mph
Raw Report DataKATL 301552Z VRB04KT 10SM SCT026 BKN080 BKN250 29/22 A3017 RMK AO2 SLP204 T02890222
Traffic Incident Summary
Active as of:
Severity:
Category:
InformationThere was an issue retrieving the traffic information for this location. Please try a different location or try again shortly.
Advertisements
Track Severe Weather on mobile